Time;durP1;ratioP1;P1;durP2;ratioP2;P2;SDS_P1;SDS_P2;PMS_P1;PMS_P2;Temp;Humidity;BMP_temperature;BMP_pressure;BME280_temperature;BME280_humidity;BME280_pressure;Samples;Min_cycle;Max_cycle;Signal;HPM_P1;HPM_P2
2022/11/28 00:01:50;;;;;;;71.97;44.78;;;3.70;99.90;;;;;;5019414;28;20210;-87
2022/11/28 00:04:18;;;;;;;88.68;45.58;;;3.70;99.90;;;;;;5013050;28;20256;-81
2022/11/28 00:06:48;;;;;;;82.10;44.72;;;4.00;99.90;;;;;;5034118;28;20493;-84
2022/11/28 00:09:16;;;;;;;79.28;44.88;;;3.70;99.90;;;;;;5025468;28;20205;-85
2022/11/28 00:11:46;;;;;;;84.50;45.08;;;3.70;99.90;;;;;;5023356;28;20512;-83
2022/11/28 00:14:15;;;;;;;79.60;44.28;;;3.60;99.90;;;;;;5031779;28;20212;-84
2022/11/28 00:16:42;;;;;;;78.22;42.65;;;3.60;99.90;;;;;;5020078;28;20210;-85
2022/11/28 00:19:10;;;;;;;70.22;44.05;;;3.60;99.90;;;;;;5027167;28;20222;-85
2022/11/28 00:21:37;;;;;;;78.65;45.22;;;3.50;99.90;;;;;;5019482;28;20285;-81
2022/11/28 00:24:05;;;;;;;78.80;46.50;;;3.50;99.90;;;;;;5028126;28;20205;-81
2022/11/28 00:26:35;;;;;;;85.68;45.60;;;3.40;99.90;;;;;;5028359;28;20247;-88
2022/11/28 00:29:02;;;;;;;73.40;46.92;;;3.30;99.90;;;;;;5017205;28;20213;-83
2022/11/28 00:31:32;;;;;;;78.28;46.28;;;3.20;99.90;;;;;;5021122;28;20237;-83
2022/11/28 00:34:02;;;;;;;85.18;48.05;;;3.10;99.90;;;;;;5030181;28;20229;-87
2022/11/28 00:36:30;;;;;;;72.95;45.95;;;3.10;99.90;;;;;;5023345;28;20271;-85
2022/11/28 00:38:57;;;;;;;82.03;47.67;;;3.10;99.90;;;;;;5018428;28;20482;-83
2022/11/28 00:41:27;;;;;;;80.03;49.33;;;3.10;99.90;;;;;;5022270;28;20464;-83
2022/11/28 00:43:55;;;;;;;70.45;45.85;;;3.00;99.90;;;;;;5027830;28;20515;-86
2022/11/28 00:46:23;;;;;;;80.95;48.20;;;3.20;99.90;;;;;;5018340;28;20214;-84
2022/11/28 00:48:51;;;;;;;78.00;47.35;;;2.90;99.90;;;;;;5014783;28;20231;-85
2022/11/28 00:51:21;;;;;;;88.78;49.08;;;2.90;99.90;;;;;;5025138;28;20382;-86
2022/11/28 00:53:50;;;;;;;86.15;51.83;;;2.90;99.90;;;;;;5023343;28;20205;-84
2022/11/28 00:56:21;;;;;;;94.38;55.03;;;2.90;99.90;;;;;;5019984;28;20209;-86
2022/11/28 00:58:48;;;;;;;88.07;51.35;;;2.90;99.90;;;;;;5015626;28;20202;-84
2022/11/28 01:01:17;;;;;;;89.10;52.75;;;3.40;99.90;;;;;;5022010;28;20497;-84
2022/11/28 01:03:46;;;;;;;93.55;52.72;;;2.70;99.90;;;;;;5031841;28;20231;-85
2022/11/28 01:06:20;;;;;;;84.30;47.55;;;2.70;99.90;;;;;;5028424;28;20338;-83
2022/11/28 01:08:47;;;;;;;81.28;50.65;;;2.50;99.90;;;;;;5013553;28;20205;-84
2022/11/28 01:11:14;;;;;;;96.28;54.75;;;2.70;99.90;;;;;;5021987;28;20279;-85
2022/11/28 01:13:41;;;;;;;89.60;52.85;;;2.60;99.90;;;;;;5027661;28;20205;-86
2022/11/28 01:16:08;;;;;;;96.30;51.58;;;2.70;99.90;;;;;;5027534;28;20221;-84
2022/11/28 01:18:36;;;;;;;91.28;53.97;;;2.80;99.90;;;;;;5029556;28;20527;-83
2022/11/28 01:21:05;;;;;;;94.30;52.92;;;2.70;99.90;;;;;;5032878;28;20213;-88
2022/11/28 01:23:32;;;;;;;84.38;52.00;;;2.70;99.90;;;;;;5034734;28;20333;-85
2022/11/28 01:26:02;;;;;;;94.90;56.22;;;2.70;99.90;;;;;;5025290;28;20493;-85
2022/11/28 01:28:28;;;;;;;93.85;54.13;;;2.70;99.90;;;;;;5030028;28;20463;-86
2022/11/28 01:30:55;;;;;;;94.47;57.70;;;2.80;99.90;;;;;;5024217;28;20272;-85
2022/11/28 01:33:22;;;;;;;97.22;56.15;;;2.70;99.90;;;;;;5022616;28;20244;-86
2022/11/28 01:35:57;;;;;;;105.60;55.63;;;2.70;99.90;;;;;;5031208;28;20216;-84
2022/11/28 01:38:24;;;;;;;93.22;58.95;;;2.70;99.90;;;;;;5034749;28;20192;-87
2022/11/28 01:40:53;;;;;;;92.93;53.08;;;2.60;99.90;;;;;;5028011;28;20197;-85
2022/11/28 01:43:21;;;;;;;93.07;55.28;;;3.00;99.90;;;;;;5023553;28;20213;-85
2022/11/28 01:45:49;;;;;;;98.18;57.20;;;2.90;99.90;;;;;;5024360;28;20217;-87
2022/11/28 01:48:29;;;;;;;109.40;60.08;;;2.60;99.90;;;;;;5028196;28;20213;-86
2022/11/28 01:50:59;;;;;;;94.28;52.88;;;2.80;99.90;;;;;;5001295;28;20230;-85
2022/11/28 01:53:30;;;;;;;102.63;59.78;;;2.70;99.90;;;;;;5022974;28;20220;-85
2022/11/28 01:56:19;;;;;;;93.53;56.90;;;2.60;99.90;;;;;;5024717;28;20448;-82
2022/11/28 01:58:51;;;;;;;97.15;58.65;;;2.60;99.90;;;;;;5022780;28;20197;-85
2022/11/28 02:01:20;;;;;;;93.85;60.45;;;2.80;99.90;;;;;;5022117;28;20530;-85
2022/11/28 02:03:49;;;;;;;111.72;67.95;;;2.50;99.90;;;;;;5023100;28;20205;-86
2022/11/28 02:06:19;;;;;;;104.18;59.85;;;2.60;99.90;;;;;;5025716;28;20209;-86
2022/11/28 02:08:52;;;;;;;99.63;60.88;;;2.70;99.90;;;;;;5028332;28;20244;-85
2022/11/28 02:11:44;;;;;;;120.18;64.20;;;2.60;99.90;;;;;;5019093;28;20222;-86
2022/11/28 02:14:19;;;;;;;111.22;63.60;;;2.60;99.90;;;;;;5020304;28;20210;-82
2022/11/28 02:17:24;;;;;;;118.05;65.20;;;2.60;99.90;;;;;;5022874;28;20213;-84
2022/11/28 02:20:23;;;;;;;116.80;66.38;;;2.60;99.90;;;;;;5022312;28;20202;-85
2022/11/28 02:23:14;;;;;;;115.75;66.25;;;2.50;99.90;;;;;;5025423;28;20209;-84
2022/11/28 02:26:09;;;;;;;121.65;68.75;;;2.40;99.90;;;;;;5009636;28;20359;-86
2022/11/28 02:28:53;;;;;;;117.03;65.82;;;2.40;99.90;;;;;;5027394;28;20221;-85
2022/11/28 02:31:38;;;;;;;121.80;59.83;;;2.40;99.90;;;;;;5024273;28;20274;-82
2022/11/28 02:34:42;;;;;;;126.53;63.28;;;2.40;99.90;;;;;;5036582;28;20483;-84
2022/11/28 02:37:52;;;;;;;109.60;63.50;;;2.50;99.90;;;;;;5019894;28;20211;-84
2022/11/28 02:40:55;;;;;;;108.13;63.10;;;2.40;99.90;;;;;;5010956;28;20362;-82
2022/11/28 02:43:42;;;;;;;112.95;65.18;;;2.50;99.90;;;;;;4998720;28;20437;-83
2022/11/28 02:46:22;;;;;;;101.47;62.58;;;2.60;99.90;;;;;;5023700;28;20291;-85
2022/11/28 02:49:06;;;;;;;111.55;61.03;;;2.60;99.90;;;;;;5027707;28;20201;-86
2022/11/28 02:51:44;;;;;;;108.25;59.42;;;2.60;99.90;;;;;;5034512;28;20236;-83
2022/11/28 02:54:14;;;;;;;106.35;59.38;;;2.70;99.90;;;;;;5022429;28;20193;-87
2022/11/28 02:56:49;;;;;;;104.93;60.63;;;2.80;99.90;;;;;;5030024;28;20216;-86
2022/11/28 02:59:37;;;;;;;109.82;64.38;;;2.60;99.90;;;;;;5037905;28;20428;-84
2022/11/28 03:02:31;;;;;;;106.63;61.63;;;2.70;99.90;;;;;;5029576;28;20239;-85
2022/11/28 03:05:22;;;;;;;107.20;58.38;;;2.70;99.90;;;;;;5025285;28;20220;-84
2022/11/28 03:08:21;;;;;;;111.50;61.13;;;2.70;99.90;;;;;;5014528;28;20201;-85
2022/11/28 03:11:14;;;;;;;95.88;55.28;;;2.70;99.90;;;;;;5039035;28;20198;-85
2022/11/28 03:13:50;;;;;;;122.25;62.03;;;2.70;99.90;;;;;;5050283;28;20221;-87
2022/11/28 03:16:41;;;;;;;121.63;62.40;;;2.60;99.90;;;;;;5039436;28;20212;-84
2022/11/28 03:19:29;;;;;;;104.75;56.20;;;2.60;99.90;;;;;;5027125;28;20221;-83
2022/11/28 03:22:05;;;;;;;109.95;60.03;;;2.60;99.90;;;;;;5020150;28;20213;-83
2022/11/28 03:24:53;;;;;;;112.45;62.78;;;2.60;99.90;;;;;;5031272;28;20599;-81
2022/11/28 03:27:32;;;;;;;117.97;63.28;;;2.60;99.90;;;;;;5026964;28;20214;-83
2022/11/28 03:30:16;;;;;;;112.80;59.95;;;2.50;99.90;;;;;;5028911;28;20200;-85
2022/11/28 03:32:48;;;;;;;116.43;63.40;;;2.60;99.90;;;;;;5029630;28;20229;-83
2022/11/28 03:35:19;;;;;;;122.80;68.18;;;2.90;99.90;;;;;;5021754;28;20244;-87
2022/11/28 03:38:08;;;;;;;113.13;64.40;;;2.70;99.90;;;;;;5027867;28;20209;-83
2022/11/28 03:40:42;;;;;;;126.50;63.05;;;2.60;99.90;;;;;;5048448;28;20389;-84
2022/11/28 03:43:19;;;;;;;141.50;69.95;;;2.60;99.90;;;;;;5030131;28;20501;-82
2022/11/28 03:45:49;;;;;;;140.25;70.30;;;3.00;99.90;;;;;;5013882;28;20212;-84
2022/11/28 03:48:23;;;;;;;146.05;73.70;;;2.80;99.90;;;;;;5025598;28;20217;-81
2022/11/28 03:51:02;;;;;;;133.55;67.38;;;2.80;99.90;;;;;;5025843;28;20339;-81
2022/11/28 03:53:37;;;;;;;138.07;66.75;;;2.80;99.90;;;;;;5016670;28;20205;-83
2022/11/28 03:56:13;;;;;;;126.43;64.22;;;2.90;99.90;;;;;;5019673;28;20251;-85
2022/11/28 03:58:53;;;;;;;117.40;67.43;;;2.90;99.90;;;;;;5023700;28;20205;-84
2022/11/28 04:01:33;;;;;;;149.38;68.68;;;3.00;99.90;;;;;;5012600;28;20217;-84
2022/11/28 04:04:33;;;;;;;120.97;62.45;;;3.00;99.90;;;;;;5014588;28;20209;-87
2022/11/28 04:07:22;;;;;;;113.63;63.53;;;2.90;99.90;;;;;;5020696;28;20257;-83
2022/11/28 04:10:12;;;;;;;136.95;66.88;;;2.80;99.90;;;;;;5020990;28;20229;-83
2022/11/28 04:13:06;;;;;;;134.63;67.60;;;2.70;99.90;;;;;;5027715;28;20296;-82
2022/11/28 04:15:44;;;;;;;128.60;63.28;;;2.80;99.90;;;;;;5034130;28;20511;-83
2022/11/28 04:18:25;;;;;;;139.63;68.85;;;2.90;99.90;;;;;;5020196;28;20206;-83
2022/11/28 04:21:02;;;;;;;131.65;66.47;;;2.80;99.90;;;;;;5014228;28;20205;-83
2022/11/28 04:23:31;;;;;;;133.98;68.03;;;2.90;99.90;;;;;;5026623;28;20256;-83
2022/11/28 04:26:17;;;;;;;126.18;65.75;;;2.90;99.90;;;;;;5031081;28;20212;-84
2022/11/28 04:28:47;;;;;;;119.57;66.43;;;3.30;99.90;;;;;;5024067;28;20213;-82
2022/11/28 04:31:16;;;;;;;133.35;66.03;;;2.90;99.90;;;;;;5024959;28;20221;-83
2022/11/28 04:33:49;;;;;;;135.23;70.10;;;3.00;99.90;;;;;;5014917;28;20292;-86
2022/11/28 04:36:19;;;;;;;137.15;67.53;;;3.00;99.90;;;;;;5020532;28;20209;-83
2022/11/28 04:38:54;;;;;;;140.95;69.35;;;3.00;99.90;;;;;;5028769;28;20206;-84
2022/11/28 04:41:31;;;;;;;121.30;67.15;;;3.00;99.90;;;;;;5021166;28;20210;-84
2022/11/28 04:44:07;;;;;;;131.48;64.43;;;3.00;99.90;;;;;;5014157;28;20261;-86
2022/11/28 04:46:42;;;;;;;137.52;65.15;;;3.10;99.90;;;;;;5036946;28;20221;-84
2022/11/28 04:49:10;;;;;;;127.88;67.75;;;3.20;99.90;;;;;;5021459;28;20275;-82
2022/11/28 04:51:58;;;;;;;138.18;66.53;;;3.10;99.90;;;;;;5020322;28;20288;-84
2022/11/28 04:54:43;;;;;;;141.75;68.28;;;3.20;99.90;;;;;;5015437;28;20214;-86
2022/11/28 04:57:17;;;;;;;137.07;67.55;;;3.10;99.90;;;;;;5015350;28;20209;-83
2022/11/28 04:59:46;;;;;;;115.20;60.17;;;3.20;99.90;;;;;;5031169;28;20615;-83
2022/11/28 05:02:14;;;;;;;113.30;64.70;;;3.50;99.90;;;;;;5015749;28;20214;-83
2022/11/28 05:04:42;;;;;;;121.68;61.42;;;3.50;99.90;;;;;;5019333;28;20226;-83
2022/11/28 05:07:10;;;;;;;131.85;60.90;;;3.50;99.90;;;;;;5012185;28;20284;-83
2022/11/28 05:09:37;;;;;;;126.68;63.10;;;3.60;99.90;;;;;;5015622;28;20492;-84
2022/11/28 05:12:05;;;;;;;134.20;63.95;;;3.90;99.90;;;;;;5024994;28;20233;-85
2022/11/28 05:14:32;;;;;;;125.35;61.72;;;3.60;99.90;;;;;;5012468;28;20213;-84
2022/11/28 05:16:59;;;;;;;119.15;62.30;;;3.50;99.90;;;;;;5025541;28;20218;-84
2022/11/28 05:19:26;;;;;;;101.90;52.25;;;3.60;99.90;;;;;;5012441;28;20731;-83
2022/11/28 05:21:53;;;;;;;95.65;49.85;;;3.50;99.90;;;;;;5012875;28;20256;-83
2022/11/28 05:24:20;;;;;;;92.88;49.22;;;3.40;99.90;;;;;;5027605;28;20478;-83
2022/11/28 05:26:48;;;;;;;96.72;50.75;;;3.30;99.90;;;;;;5013913;28;20272;-83
2022/11/28 05:29:16;;;;;;;95.40;48.92;;;3.20;99.90;;;;;;5021988;28;20214;-84
2022/11/28 05:31:43;;;;;;;104.30;49.33;;;3.20;99.90;;;;;;5021470;28;20238;-84
2022/11/28 05:34:10;;;;;;;96.22;48.25;;;3.10;99.90;;;;;;5021954;28;20208;-82
2022/11/28 05:36:36;;;;;;;97.25;52.95;;;3.20;99.90;;;;;;5026615;28;20197;-81
2022/11/28 05:39:03;;;;;;;99.53;49.72;;;3.20;99.90;;;;;;5020544;28;20230;-85
2022/11/28 05:41:32;;;;;;;93.68;49.40;;;3.20;99.90;;;;;;5027957;28;20533;-84
2022/11/28 05:44:00;;;;;;;101.80;49.40;;;3.30;99.90;;;;;;5019901;28;20209;-82
2022/11/28 05:46:27;;;;;;;92.28;47.10;;;3.30;99.90;;;;;;5031856;28;20409;-84
2022/11/28 05:48:55;;;;;;;78.60;44.05;;;3.20;99.90;;;;;;5026896;28;20255;-85
2022/11/28 05:51:22;;;;;;;92.15;45.85;;;3.20;99.90;;;;;;5024803;28;20209;-83
2022/11/28 05:53:49;;;;;;;84.60;48.50;;;3.20;99.90;;;;;;5008070;28;20287;-84
2022/11/28 05:56:18;;;;;;;90.05;49.03;;;3.40;99.90;;;;;;5025888;28;20570;-87
2022/11/28 05:58:46;;;;;;;88.07;48.65;;;3.40;99.90;;;;;;5017861;28;20201;-82
2022/11/28 06:01:14;;;;;;;96.72;49.85;;;3.00;99.90;;;;;;5020887;28;20268;-82
2022/11/28 06:03:41;;;;;;;85.55;46.88;;;3.10;99.90;;;;;;5022783;28;20256;-84
2022/11/28 06:06:20;;;;;;;101.75;49.38;;;4.30;99.90;;;;;;5013630;28;20206;-87
2022/11/28 06:08:51;;;;;;;103.60;50.40;;;3.20;99.90;;;;;;5043374;28;20264;-82
2022/11/28 06:11:26;;;;;;;94.07;50.05;;;3.10;99.90;;;;;;5013920;28;20223;-86
2022/11/28 06:13:53;;;;;;;91.05;49.00;;;3.10;99.90;;;;;;5036720;28;20208;-86
2022/11/28 06:16:33;;;;;;;95.95;47.63;;;3.50;99.90;;;;;;5061234;28;20212;-84
2022/11/28 06:19:14;;;;;;;98.72;50.55;;;3.00;99.90;;;;;;5024743;28;20228;-88
2022/11/28 06:21:44;;;;;;;99.15;49.85;;;3.00;99.90;;;;;;5023121;28;20200;-82
2022/11/28 06:24:12;;;;;;;93.22;49.47;;;3.00;99.90;;;;;;5039657;28;20201;-84
2022/11/28 06:26:39;;;;;;;85.22;46.58;;;3.10;99.90;;;;;;5033371;28;20537;-85
2022/11/28 06:29:07;;;;;;;80.60;49.28;;;3.00;99.90;;;;;;5026330;28;20210;-85
2022/11/28 06:31:34;;;;;;;97.40;47.90;;;3.30;99.90;;;;;;5033851;28;20217;-80
2022/11/28 06:34:02;;;;;;;80.90;45.67;;;2.90;99.90;;;;;;5031550;28;20435;-81
2022/11/28 06:36:29;;;;;;;92.60;43.30;;;3.30;99.90;;;;;;5016248;28;20253;-84
2022/11/28 06:38:57;;;;;;;79.07;45.33;;;3.00;99.90;;;;;;5034451;28;20256;-83
2022/11/28 06:41:24;;;;;;;87.00;46.50;;;3.20;99.90;;;;;;5018845;28;20205;-84
2022/11/28 06:43:51;;;;;;;92.55;48.17;;;3.10;99.90;;;;;;5031679;28;20250;-82
2022/11/28 06:46:20;;;;;;;110.72;51.97;;;3.10;99.90;;;;;;5020034;28;20528;-85
2022/11/28 06:48:49;;;;;;;94.10;50.95;;;3.40;99.90;;;;;;5033807;28;20210;-85
2022/11/28 06:51:18;;;;;;;98.00;48.70;;;3.10;99.90;;;;;;5026557;28;20520;-83
2022/11/28 06:53:46;;;;;;;96.03;52.33;;;3.00;99.90;;;;;;5017308;28;20552;-86
2022/11/28 06:56:16;;;;;;;102.15;52.65;;;2.90;99.90;;;;;;5018195;28;20213;-83
2022/11/28 06:58:43;;;;;;;104.72;52.08;;;2.90;99.90;;;;;;5020046;28;20208;-84
2022/11/28 07:01:15;;;;;;;108.85;54.88;;;2.90;99.90;;;;;;5028527;28;20205;-83
2022/11/28 07:03:43;;;;;;;98.00;51.00;;;3.20;99.90;;;;;;5018209;28;20216;-83
2022/11/28 07:06:12;;;;;;;98.85;49.17;;;3.20;99.90;;;;;;5014249;28;20299;-83
2022/11/28 07:08:39;;;;;;;102.20;50.10;;;3.00;99.90;;;;;;5027154;28;20286;-81
2022/11/28 07:11:08;;;;;;;97.90;52.60;;;3.00;99.90;;;;;;5010375;28;20213;-84
2022/11/28 07:13:35;;;;;;;102.03;57.83;;;3.00;99.90;;;;;;5026021;28;20221;-86
2022/11/28 07:16:02;;;;;;;106.93;60.40;;;3.20;99.90;;;;;;5035035;28;20217;-86
2022/11/28 07:18:29;;;;;;;111.00;59.60;;;3.10;99.90;;;;;;5039329;28;20205;-84
2022/11/28 07:20:57;;;;;;;84.15;51.35;;;3.30;99.90;;;;;;5024923;28;20212;-84
2022/11/28 07:23:25;;;;;;;104.90;50.78;;;3.20;99.90;;;;;;5026155;28;20244;-82
2022/11/28 07:26:00;;;;;;;97.70;49.50;;;3.20;99.90;;;;;;5020611;28;20212;-81
2022/11/28 07:28:29;;;;;;;88.93;49.28;;;3.10;99.90;;;;;;5017243;28;20373;-85
2022/11/28 07:31:02;;;;;;;97.82;48.88;;;3.00;99.90;;;;;;5029571;28;20424;-82
2022/11/28 07:33:30;;;;;;;94.78;51.85;;;3.00;99.90;;;;;;5024882;28;20541;-85
2022/11/28 07:36:01;;;;;;;101.15;53.50;;;3.10;99.90;;;;;;5021586;28;20222;-81
2022/11/28 07:38:28;;;;;;;125.68;63.03;;;3.30;99.90;;;;;;5013075;28;20245;-81
2022/11/28 07:41:05;;;;;;;99.35;54.80;;;3.30;99.90;;;;;;5015203;28;20252;-82
2022/11/28 07:43:32;;;;;;;105.20;54.90;;;3.40;99.90;;;;;;5020199;28;20267;-86
2022/11/28 07:46:04;;;;;;;99.43;57.70;;;3.30;99.90;;;;;;5018266;28;20256;-83
2022/11/28 07:48:32;;;;;;;111.75;58.00;;;3.20;99.90;;;;;;5029503;28;20289;-87
2022/11/28 07:50:59;;;;;;;99.85;56.97;;;3.10;99.90;;;;;;5020431;28;20209;-82
2022/11/28 07:53:26;;;;;;;112.55;57.03;;;3.20;99.90;;;;;;5030257;28;20540;-84
2022/11/28 07:55:53;;;;;;;109.88;54.75;;;3.40;99.90;;;;;;5023456;28;20255;-83
2022/11/28 07:58:21;;;;;;;82.03;51.42;;;3.20;99.90;;;;;;5028255;28;20425;-82
2022/11/28 08:00:47;;;;;;;93.28;52.85;;;3.40;99.90;;;;;;5029534;28;20193;-82
2022/11/28 08:03:14;;;;;;;104.53;56.17;;;4.10;99.90;;;;;;5023720;28;20276;-83
2022/11/28 08:05:48;;;;;;;94.72;53.10;;;3.70;99.90;;;;;;5035623;28;20240;-80
2022/11/28 08:08:16;;;;;;;106.68;60.80;;;3.90;99.90;;;;;;5010939;28;20197;-84
2022/11/28 08:10:44;;;;;;;95.13;60.53;;;4.00;99.90;;;;;;5014767;28;20551;-82
2022/11/28 08:13:12;;;;;;;118.07;61.78;;;4.10;99.90;;;;;;5034264;28;20229;-83
2022/11/28 08:15:39;;;;;;;100.55;58.65;;;4.10;99.90;;;;;;5019387;28;20214;-82
2022/11/28 08:18:06;;;;;;;94.35;60.03;;;4.00;99.90;;;;;;5025741;28;20209;-82
2022/11/28 08:20:35;;;;;;;98.35;58.97;;;3.90;99.90;;;;;;5016920;28;20442;-82
2022/11/28 08:23:01;;;;;;;94.13;52.67;;;3.80;99.90;;;;;;5009658;28;20251;-86
2022/11/28 08:25:30;;;;;;;79.00;48.88;;;3.70;99.90;;;;;;5028950;28;20382;-84
2022/11/28 08:27:57;;;;;;;78.40;47.78;;;3.90;99.90;;;;;;5027318;28;20355;-82
2022/11/28 08:30:24;;;;;;;79.28;50.47;;;3.80;99.90;;;;;;5023226;28;20480;-83
2022/11/28 08:32:51;;;;;;;66.32;45.58;;;3.70;99.90;;;;;;5034529;28;20232;-82
2022/11/28 08:35:18;;;;;;;73.82;41.95;;;3.80;99.90;;;;;;5026503;28;20444;-81
2022/11/28 08:37:45;;;;;;;59.30;42.47;;;4.00;99.90;;;;;;5028980;28;20213;-84
2022/11/28 08:40:13;;;;;;;70.50;45.38;;;3.90;99.90;;;;;;5030108;28;20251;-82
2022/11/28 08:42:41;;;;;;;68.75;43.08;;;3.90;99.90;;;;;;5028920;28;20267;-82
2022/11/28 08:45:10;;;;;;;64.63;42.60;;;4.00;99.90;;;;;;5007822;28;20209;-82
2022/11/28 08:47:37;;;;;;;67.63;41.28;;;4.10;99.90;;;;;;5030392;28;20220;-84
2022/11/28 08:50:05;;;;;;;58.95;41.25;;;4.20;99.90;;;;;;5020547;28;20529;-84
2022/11/28 08:52:32;;;;;;;65.00;40.60;;;4.20;99.90;;;;;;5021342;28;20233;-81
2022/11/28 08:54:59;;;;;;;52.03;40.10;;;4.00;99.90;;;;;;5035499;28;20205;-82
2022/11/28 08:57:26;;;;;;;57.20;38.47;;;4.00;99.90;;;;;;5021416;28;20237;-84
2022/11/28 08:59:53;;;;;;;67.15;42.72;;;4.00;99.90;;;;;;5024478;28;20397;-83
2022/11/28 09:02:19;;;;;;;60.03;41.50;;;4.00;99.90;;;;;;5022529;28;20214;-82
2022/11/28 09:04:51;;;;;;;57.35;39.35;;;4.10;99.90;;;;;;5025643;28;20538;-86
2022/11/28 09:07:18;;;;;;;57.45;43.20;;;4.20;99.90;;;;;;5022641;28;20392;-83
2022/11/28 09:09:45;;;;;;;56.53;37.53;;;4.20;99.90;;;;;;5021834;28;20201;-86
2022/11/28 09:12:12;;;;;;;57.22;38.88;;;4.10;99.90;;;;;;5021940;28;20355;-84
2022/11/28 09:14:39;;;;;;;56.75;37.83;;;4.00;99.90;;;;;;5029180;28;20201;-82
2022/11/28 09:17:07;;;;;;;59.25;35.28;;;4.10;99.90;;;;;;5021746;28;20206;-83
2022/11/28 09:19:34;;;;;;;56.67;37.72;;;4.30;99.90;;;;;;5021914;28;20244;-82
2022/11/28 09:22:01;;;;;;;51.33;34.50;;;4.50;99.90;;;;;;5012897;28;20221;-85
2022/11/28 09:24:28;;;;;;;51.83;37.58;;;4.60;99.90;;;;;;5028845;28;20214;-82
2022/11/28 09:26:55;;;;;;;50.10;33.78;;;4.50;99.90;;;;;;5037036;28;20200;-84
2022/11/28 09:29:22;;;;;;;53.17;36.17;;;4.40;99.90;;;;;;5033609;28;20452;-85
2022/11/28 09:31:49;;;;;;;57.85;35.42;;;4.30;99.90;;;;;;5025646;28;20205;-82
2022/11/28 09:34:16;;;;;;;51.72;34.08;;;4.30;99.90;;;;;;5027195;28;20294;-84
2022/11/28 09:36:43;;;;;;;45.55;31.83;;;4.80;99.90;;;;;;5034830;28;20236;-84
2022/11/28 09:39:11;;;;;;;41.72;30.35;;;4.50;99.90;;;;;;5031236;28;20205;-83
2022/11/28 09:41:48;;;;;;;48.88;34.33;;;4.60;99.90;;;;;;5024763;28;20256;-84
2022/11/28 09:44:22;;;;;;;44.67;33.05;;;4.40;99.90;;;;;;5026062;28;20202;-86
2022/11/28 09:46:53;;;;;;;47.75;30.92;;;4.80;99.90;;;;;;5020427;28;20208;-84
2022/11/28 09:49:30;;;;;;;51.50;32.90;;;4.80;99.90;;;;;;5022064;28;20280;-87
2022/11/28 09:52:11;;;;;;;51.15;30.60;;;5.00;99.90;;;;;;5022255;28;20272;-87
2022/11/28 09:54:59;;;;;;;47.67;33.65;;;5.00;99.90;;;;;;5022168;28;20243;-84
2022/11/28 09:57:34;;;;;;;49.10;33.60;;;5.00;99.90;;;;;;5022710;28;20237;-84
2022/11/28 10:00:02;;;;;;;44.88;29.52;;;5.10;99.90;;;;;;5030310;28;20252;-83
2022/11/28 10:02:37;;;;;;;41.90;31.15;;;5.00;99.90;;;;;;5043925;28;20289;-82
2022/11/28 10:05:24;;;;;;;38.70;30.42;;;5.00;99.90;;;;;;5029090;28;20197;-83
2022/11/28 10:08:02;;;;;;;41.35;30.65;;;5.10;99.90;;;;;;5013336;28;20245;-85
2022/11/28 10:11:14;;;;;;;46.28;31.15;;;5.10;99.90;;;;;;5020756;28;20549;-84
2022/11/28 10:14:13;;;;;;;39.38;29.17;;;5.10;99.90;;;;;;5014905;28;20253;-83
2022/11/28 10:17:17;;;;;;;45.08;32.58;;;5.10;99.90;;;;;;5025791;28;20260;-82
2022/11/28 10:20:18;;;;;;;41.35;28.60;;;5.00;99.90;;;;;;5029075;28;20470;-86
2022/11/28 10:22:51;;;;;;;41.20;28.25;;;4.90;99.90;;;;;;5019732;28;20205;-82
2022/11/28 10:25:39;;;;;;;43.30;32.97;;;4.90;99.90;;;;;;5022513;28;20432;-85
2022/11/28 10:28:13;;;;;;;43.00;29.13;;;4.80;99.90;;;;;;5015938;28;20206;-82
2022/11/28 10:30:45;;;;;;;41.35;29.50;;;4.70;99.90;;;;;;5026796;28;20205;-83
2022/11/28 10:33:23;;;;;;;39.33;30.08;;;4.80;99.90;;;;;;5028871;28;20543;-84
2022/11/28 10:35:55;;;;;;;44.15;29.02;;;4.80;99.90;;;;;;5015284;28;20197;-84
2022/11/28 10:38:26;;;;;;;43.70;31.52;;;4.80;99.90;;;;;;5029843;28;20194;-82
2022/11/28 10:41:17;;;;;;;37.75;26.08;;;5.50;99.90;;;;;;5029314;28;20452;-82
2022/11/28 10:44:28;;;;;;;47.75;27.98;;;5.00;99.90;;;;;;5030953;28;20233;-85
2022/11/28 10:47:16;;;;;;;36.08;26.45;;;5.10;99.90;;;;;;5024443;28;20240;-85
2022/11/28 10:50:13;;;;;;;40.17;25.63;;;5.20;99.90;;;;;;5033738;28;20205;-81
2022/11/28 10:52:49;;;;;;;32.13;25.10;;;5.20;99.90;;;;;;5031505;28;20219;-85
2022/11/28 10:55:29;;;;;;;33.72;23.80;;;5.30;99.90;;;;;;5020178;28;20197;-83
2022/11/28 10:57:59;;;;;;;37.25;24.52;;;5.20;99.90;;;;;;5006757;28;20213;-82
2022/11/28 11:00:26;;;;;;;33.85;23.33;;;5.80;99.90;;;;;;5012010;28;20252;-81
2022/11/28 11:02:55;;;;;;;36.28;24.65;;;5.40;99.90;;;;;;5033141;28;20221;-84
2022/11/28 11:05:27;;;;;;;35.00;25.33;;;5.40;99.90;;;;;;5031755;28;20228;-82
2022/11/28 11:08:02;;;;;;;32.15;22.15;;;5.40;99.90;;;;;;5000890;28;20380;-83
2022/11/28 11:10:41;;;;;;;29.92;20.15;;;5.50;99.90;;;;;;5029234;28;20204;-84
2022/11/28 11:13:28;;;;;;;42.70;25.17;;;5.60;99.90;;;;;;5026008;28;20217;-87
2022/11/28 11:16:05;;;;;;;31.50;22.38;;;5.70;99.90;;;;;;5021047;28;20209;-82
2022/11/28 11:18:40;;;;;;;29.75;20.13;;;5.80;99.90;;;;;;5028666;28;20177;-84
2022/11/28 11:21:13;;;;;;;30.65;22.35;;;5.90;99.90;;;;;;5041880;28;20283;-85
2022/11/28 11:23:41;;;;;;;26.70;19.25;;;6.00;99.90;;;;;;5035644;28;20191;-86
2022/11/28 11:26:21;;;;;;;31.83;21.40;;;6.00;99.90;;;;;;5045281;28;20556;-83
2022/11/28 11:28:49;;;;;;;26.23;19.20;;;6.00;99.90;;;;;;5012058;28;20216;-83
2022/11/28 11:31:28;;;;;;;29.15;20.95;;;6.20;99.90;;;;;;5024167;28;20220;-83
2022/11/28 11:34:16;;;;;;;35.83;20.85;;;6.00;99.90;;;;;;5020221;28;20536;-85
2022/11/28 11:36:43;;;;;;;31.80;21.15;;;6.10;99.90;;;;;;5019850;28;20213;-84
2022/11/28 11:39:11;;;;;;;25.60;18.75;;;6.50;99.90;;;;;;5031514;28;20214;-83
2022/11/28 11:41:44;;;;;;;25.45;18.25;;;6.20;99.90;;;;;;5032269;28;20198;-83
2022/11/28 11:44:13;;;;;;;25.88;18.33;;;6.20;99.90;;;;;;5038850;28;20285;-81
2022/11/28 11:46:59;;;;;;;23.30;16.40;;;6.10;99.90;;;;;;5022319;28;20244;-84
2022/11/28 11:49:43;;;;;;;26.10;16.88;;;6.20;99.90;;;;;;5030798;28;20235;-84
2022/11/28 11:52:26;;;;;;;27.58;18.35;;;6.10;99.90;;;;;;5028036;28;20232;-84
2022/11/28 11:54:56;;;;;;;25.95;15.82;;;6.00;99.90;;;;;;5028334;28;20240;-83
2022/11/28 11:57:38;;;;;;;25.73;16.55;;;6.20;99.90;;;;;;5016959;28;20502;-82
2022/11/28 12:00:32;;;;;;;26.17;17.70;;;6.10;99.90;;;;;;5031693;28;20205;-82
2022/11/28 12:03:05;;;;;;;31.85;20.40;;;6.20;99.90;;;;;;5022068;28;20242;-85
2022/11/28 12:05:43;;;;;;;22.02;15.48;;;6.10;99.90;;;;;;5033317;28;20209;-85
2022/11/28 12:08:35;;;;;;;26.38;18.35;;;6.00;99.90;;;;;;5041918;28;20223;-83
2022/11/28 12:11:33;;;;;;;22.92;15.80;;;6.10;99.90;;;;;;5024844;28;20186;-83
2022/11/28 12:14:18;;;;;;;23.38;16.58;;;5.90;99.90;;;;;;5019867;28;20229;-80
2022/11/28 12:17:04;;;;;;;23.23;15.07;;;5.80;99.90;;;;;;5026825;28;20217;-83
2022/11/28 12:20:06;;;;;;;28.92;16.40;;;6.00;99.90;;;;;;5012082;28;20223;-82
2022/11/28 12:22:47;;;;;;;22.80;16.40;;;5.80;99.90;;;;;;5000934;28;20217;-83
2022/11/28 12:25:46;;;;;;;25.23;18.05;;;5.80;99.90;;;;;;5028249;28;20259;-83
2022/11/28 12:28:48;;;;;;;23.95;16.83;;;5.60;99.90;;;;;;5007274;28;20304;-85
2022/11/28 12:31:40;;;;;;;25.75;18.70;;;5.50;99.90;;;;;;5026729;28;20239;-86
2022/11/28 12:34:13;;;;;;;22.80;15.93;;;5.40;99.90;;;;;;5016093;28;20221;-86
2022/11/28 12:36:55;;;;;;;26.73;17.00;;;5.40;99.90;;;;;;5025429;28;20244;-84
2022/11/28 12:39:37;;;;;;;26.67;17.48;;;5.40;99.90;;;;;;5023473;28;20202;-85
2022/11/28 12:42:23;;;;;;;21.15;15.48;;;5.30;99.90;;;;;;5022847;28;20478;-85
2022/11/28 12:45:27;;;;;;;25.60;16.42;;;5.20;99.90;;;;;;5020660;28;20517;-86
2022/11/28 12:48:01;;;;;;;30.45;17.52;;;5.30;99.90;;;;;;5016603;28;20217;-87
2022/11/28 12:50:46;;;;;;;26.80;18.30;;;5.30;99.90;;;;;;5036341;28;20432;-85
2022/11/28 12:53:28;;;;;;;27.13;19.45;;;5.30;99.90;;;;;;5020759;28;20197;-86
2022/11/28 12:56:25;;;;;;;23.00;16.92;;;5.30;99.90;;;;;;5033297;28;20268;-88
2022/11/28 12:59:33;;;;;;;25.23;16.90;;;5.10;99.90;;;;;;5031159;28;20219;-82
2022/11/28 13:02:45;;;;;;;25.80;16.38;;;5.00;99.90;;;;;;5020849;28;20217;-84
2022/11/28 13:05:41;;;;;;;28.60;17.85;;;5.10;99.90;;;;;;5049306;28;20240;-83
2022/11/28 13:08:17;;;;;;;21.40;16.20;;;5.10;99.90;;;;;;5024558;28;20382;-84
2022/11/28 13:11:05;;;;;;;25.67;16.73;;;5.00;99.90;;;;;;5032745;28;20374;-82
2022/11/28 13:13:39;;;;;;;31.83;20.02;;;4.90;99.90;;;;;;5033150;28;20251;-86